Atwood, Wisconsin
Current Conditions -  °F | °C
As of 5:35 PM on Saturday 25 Oct 2014 (Local Time) from KMDZ Reporting Station
Clear Clear  
Wind Chill: 56°   Ceiling: Unl
Heat Index: 56°   Visibility: 10mi
Dew Point: 27°   Wind: 13mph
Humidity: 33%   Direction: 300°WNW
Pressure: 29.92"   Gusts: 22mph
Location:  44.9782°N, 90.5368°W
Report Text: KMDZ 252235Z AUTO 30011G19KT 10SM CLR 13/M03 A2992 RMK AO2 T01311029
Loading
Personal Weather Stations






























Interactive Weather Map New forecast layout! Learn more

10-Day Weather Forecast

Advertisements
Track Severe Weather on mobile